createdAt,value
2017-06-15T00:00:21.679Z,68.44
2017-06-15T00:01:17.982Z,68.58
2017-06-15T00:02:14.249Z,68.63
2017-06-15T00:03:10.511Z,68.78
2017-06-15T00:04:06.759Z,68.92
2017-06-15T00:05:03.014Z,68.94
2017-06-15T00:05:59.266Z,69.05
2017-06-15T00:06:55.522Z,69.23
2017-06-15T00:07:51.783Z,69.21
2017-06-15T00:08:48.026Z,69.37
2017-06-15T00:09:44.279Z,69.43
2017-06-15T00:10:40.527Z,69.46
2017-06-15T00:11:36.773Z,69.51
2017-06-15T00:12:33.031Z,69.62
2017-06-15T00:13:29.298Z,69.66
2017-06-15T00:14:25.559Z,69.67
2017-06-15T00:15:21.826Z,70.00
2017-06-15T00:16:18.070Z,69.41
2017-06-15T00:17:14.303Z,68.67
2017-06-15T00:18:10.569Z,68.02
2017-06-15T00:19:06.826Z,67.51
2017-06-15T00:20:03.079Z,67.24
2017-06-15T00:20:59.327Z,66.97
2017-06-15T00:21:55.583Z,66.75
2017-06-15T00:22:51.843Z,66.54
2017-06-15T00:23:48.086Z,66.40
2017-06-15T00:24:44.323Z,66.22
2017-06-15T00:25:40.575Z,66.05
2017-06-15T00:26:36.819Z,65.80
2017-06-15T00:27:33.059Z,65.63
2017-06-15T00:28:29.331Z,65.50
2017-06-15T00:29:25.615Z,65.35
2017-06-15T00:30:21.858Z,65.24
2017-06-15T00:31:18.107Z,65.09
2017-06-15T00:32:14.354Z,64.96
2017-06-15T00:33:10.611Z,64.87
2017-06-15T00:34:06.861Z,64.81
2017-06-15T00:35:03.110Z,64.74
2017-06-15T00:35:59.359Z,64.68
2017-06-15T00:36:55.601Z,64.66
2017-06-15T00:37:51.851Z,64.63
2017-06-15T00:38:48.105Z,64.62
2017-06-15T00:39:44.374Z,64.63
2017-06-15T00:40:40.607Z,64.61
2017-06-15T00:41:36.859Z,64.60
2017-06-15T00:42:33.118Z,64.60
2017-06-15T00:43:29.364Z,64.62
2017-06-15T00:44:25.642Z,64.61
2017-06-15T00:45:21.916Z,64.60
2017-06-15T00:46:18.159Z,64.61
2017-06-15T00:47:14.407Z,64.59
2017-06-15T00:48:10.655Z,64.61
2017-06-15T00:49:06.912Z,64.57
2017-06-15T00:50:03.167Z,64.60
2017-06-15T00:50:59.430Z,64.67
2017-06-15T00:51:55.674Z,64.72
2017-06-15T00:52:51.922Z,64.80
2017-06-15T00:53:48.166Z,64.80
2017-06-15T00:54:44.411Z,64.80
2017-06-15T00:55:40.676Z,64.86
2017-06-15T00:56:36.931Z,64.93
2017-06-15T00:57:33.166Z,64.91
2017-06-15T00:58:29.419Z,64.98
2017-06-15T00:59:25.686Z,64.96
2017-06-15T01:00:21.955Z,64.98
2017-06-15T01:01:18.243Z,65.06
2017-06-15T01:02:14.491Z,65.08
2017-06-15T01:03:10.735Z,65.09
2017-06-15T01:04:06.983Z,65.18
2017-06-15T01:05:03.222Z,65.18
2017-06-15T01:05:59.478Z,65.23
2017-06-15T01:06:55.731Z,65.28
2017-06-15T01:07:51.978Z,65.31
2017-06-15T01:08:48.233Z,65.35
2017-06-15T01:09:44.470Z,65.44
2017-06-15T01:10:40.714Z,65.52
2017-06-15T01:11:36.995Z,65.55
2017-06-15T01:12:33.250Z,65.59
2017-06-15T01:13:29.496Z,65.67
2017-06-15T01:14:25.739Z,65.62
2017-06-15T01:15:21.995Z,65.64
2017-06-15T01:16:18.253Z,65.67
2017-06-15T01:17:14.514Z,65.78
2017-06-15T01:18:10.767Z,65.85
2017-06-15T01:19:07.007Z,65.94
2017-06-15T01:20:03.246Z,66.02
2017-06-15T01:20:59.483Z,66.05
2017-06-15T01:21:55.766Z,66.09
2017-06-15T01:22:52.004Z,66.21
2017-06-15T01:23:48.259Z,66.32
2017-06-15T01:24:44.503Z,66.30
2017-06-15T01:25:40.738Z,66.42
2017-06-15T01:26:36.984Z,66.57
2017-06-15T01:27:33.235Z,66.50
2017-06-15T01:28:29.477Z,66.48
2017-06-15T01:29:25.710Z,66.50
2017-06-15T01:30:21.947Z,66.64
2017-06-15T01:31:18.207Z,66.62
2017-06-15T01:32:14.489Z,66.63
2017-06-15T01:33:10.734Z,66.69
2017-06-15T01:34:06.979Z,66.76
2017-06-15T01:35:03.214Z,66.84
2017-06-15T01:35:59.454Z,66.84
2017-06-15T01:36:55.678Z,66.94
2017-06-15T01:37:51.951Z,67.02
2017-06-15T01:38:48.195Z,67.07
2017-06-15T01:39:44.457Z,67.21
2017-06-15T01:40:40.695Z,67.21
2017-06-15T01:41:36.946Z,67.26
2017-06-15T01:42:33.182Z,67.27
2017-06-15T01:43:29.447Z,67.29
2017-06-15T01:44:25.687Z,67.38
2017-06-15T01:45:21.942Z,67.43
2017-06-15T01:46:18.203Z,67.45
2017-06-15T01:47:14.442Z,67.42
2017-06-15T01:48:10.683Z,67.45
2017-06-15T01:49:06.938Z,67.39
2017-06-15T01:50:03.183Z,67.49
2017-06-15T01:50:59.422Z,67.47
2017-06-15T01:51:55.670Z,67.54
2017-06-15T01:52:51.928Z,67.56
2017-06-15T01:53:48.188Z,67.56
2017-06-15T01:54:44.471Z,67.61
2017-06-15T01:55:40.735Z,67.63
2017-06-15T01:56:36.985Z,67.59
2017-06-15T01:57:33.226Z,67.69
2017-06-15T01:58:29.475Z,67.70
2017-06-15T01:59:25.734Z,67.72
2017-06-15T02:00:22.087Z,67.75
2017-06-15T02:01:18.331Z,67.83
2017-06-15T02:02:14.579Z,67.90
2017-06-15T02:03:10.834Z,67.88
2017-06-15T02:04:07.086Z,67.88
2017-06-15T02:05:03.356Z,67.96
2017-06-15T02:05:59.615Z,68.09
2017-06-15T02:06:55.850Z,68.19
2017-06-15T02:07:52.091Z,68.15
2017-06-15T02:08:48.354Z,68.28
2017-06-15T02:09:44.626Z,68.21
2017-06-15T02:10:40.869Z,68.25
2017-06-15T02:11:37.120Z,68.26
2017-06-15T02:12:33.364Z,68.32
2017-06-15T02:13:29.603Z,68.34
2017-06-15T02:14:25.843Z,68.34
2017-06-15T02:15:22.119Z,68.39
2017-06-15T02:16:18.359Z,68.40
2017-06-15T02:17:14.631Z,68.48
2017-06-15T02:18:10.888Z,68.57
2017-06-15T02:19:07.130Z,68.61
2017-06-15T02:20:03.383Z,68.63
2017-06-15T02:20:59.655Z,68.59
2017-06-15T02:21:55.904Z,68.58
2017-06-15T02:22:52.138Z,68.69
2017-06-15T02:23:48.380Z,68.66
2017-06-15T02:24:44.627Z,68.76
2017-06-15T02:25:40.899Z,68.89
2017-06-15T02:26:37.142Z,68.87
2017-06-15T02:27:33.383Z,68.98
2017-06-15T02:28:29.622Z,69.03
2017-06-15T02:29:25.866Z,69.08
2017-06-15T02:30:22.111Z,69.08
2017-06-15T02:31:18.371Z,69.10
2017-06-15T02:32:14.611Z,69.35
2017-06-15T02:33:10.850Z,69.37
2017-06-15T02:34:07.104Z,69.37
2017-06-15T02:35:03.343Z,69.37
2017-06-15T02:35:59.598Z,69.36
2017-06-15T02:36:55.863Z,69.39
2017-06-15T02:37:52.098Z,69.53
2017-06-15T02:38:48.363Z,69.67
2017-06-15T02:39:44.614Z,69.61
2017-06-15T02:40:40.856Z,69.61
2017-06-15T02:41:37.099Z,69.65
2017-06-15T02:42:33.371Z,69.67
2017-06-15T02:43:29.615Z,69.78
2017-06-15T02:44:25.854Z,69.87
2017-06-15T02:45:22.099Z,69.78
2017-06-15T02:46:18.349Z,69.80
2017-06-15T02:47:14.631Z,69.84
2017-06-15T02:48:10.876Z,69.89
2017-06-15T02:49:07.127Z,69.90
2017-06-15T02:50:03.367Z,69.96
2017-06-15T02:50:59.614Z,70.08
2017-06-15T02:51:55.854Z,70.05
2017-06-15T02:52:52.112Z,70.08
2017-06-15T02:53:48.342Z,70.27
2017-06-15T02:54:44.586Z,70.16
2017-06-15T02:55:40.827Z,70.26
2017-06-15T02:56:37.083Z,70.23
2017-06-15T02:57:33.342Z,70.20
2017-06-15T02:58:29.599Z,70.20
2017-06-15T02:59:25.839Z,70.29
2017-06-15T03:00:22.075Z,70.26
2017-06-15T03:01:18.318Z,70.25
2017-06-15T03:02:14.550Z,70.28
2017-06-15T03:03:10.794Z,70.36
2017-06-15T03:04:07.042Z,70.55
2017-06-15T03:05:03.291Z,70.48
2017-06-15T03:05:59.535Z,70.53
2017-06-15T03:06:55.788Z,70.51
2017-06-15T03:07:52.030Z,70.57
2017-06-15T03:08:48.283Z,70.58
2017-06-15T03:09:44.523Z,70.58
2017-06-15T03:10:40.764Z,70.56
2017-06-15T03:11:37.003Z,70.63
2017-06-15T03:12:33.243Z,70.61
2017-06-15T03:13:29.501Z,70.72
2017-06-15T03:14:25.765Z,70.75
2017-06-15T03:15:21.998Z,70.79
2017-06-15T03:16:18.251Z,70.86
2017-06-15T03:17:14.495Z,70.93
2017-06-15T03:18:10.757Z,70.97
2017-06-15T03:19:07.014Z,71.04
2017-06-15T03:20:03.267Z,71.02
2017-06-15T03:20:59.506Z,71.01
2017-06-15T03:21:55.743Z,71.00
2017-06-15T03:22:51.987Z,71.13
2017-06-15T03:23:48.231Z,71.09
2017-06-15T03:24:44.503Z,71.17
2017-06-15T03:25:40.740Z,71.24
2017-06-15T03:26:36.987Z,71.22
2017-06-15T03:27:33.243Z,71.21
2017-06-15T03:28:29.490Z,71.24
2017-06-15T03:29:25.734Z,71.22
2017-06-15T03:30:22.005Z,71.25
2017-06-15T03:31:18.254Z,71.25
2017-06-15T03:32:14.491Z,71.25
2017-06-15T03:33:10.749Z,71.27
2017-06-15T03:34:06.987Z,71.26
2017-06-15T03:35:03.246Z,71.28
2017-06-15T03:35:59.486Z,71.34
2017-06-15T03:36:55.725Z,71.35
2017-06-15T03:37:51.963Z,71.34
2017-06-15T03:38:48.198Z,71.40
2017-06-15T03:39:44.438Z,71.44
2017-06-15T03:40:40.706Z,71.48
2017-06-15T03:41:36.951Z,71.48
2017-06-15T03:42:33.198Z,71.47
2017-06-15T03:43:29.476Z,71.46
2017-06-15T03:44:25.715Z,71.47
2017-06-15T03:45:21.950Z,71.53
2017-06-15T03:46:18.242Z,71.61
2017-06-15T03:47:14.491Z,71.58
2017-06-15T03:48:10.734Z,71.62
2017-06-15T03:49:07.106Z,71.57
2017-06-15T03:50:03.354Z,71.64
2017-06-15T03:50:59.614Z,71.69
2017-06-15T03:51:55.879Z,71.68
2017-06-15T03:52:52.130Z,71.67
2017-06-15T03:53:48.400Z,71.69
2017-06-15T03:54:44.650Z,71.64
2017-06-15T03:55:40.890Z,71.67
2017-06-15T03:56:37.168Z,71.71
2017-06-15T03:57:33.418Z,71.74
2017-06-15T03:58:29.674Z,71.74
2017-06-15T03:59:25.914Z,71.77
2017-06-15T04:00:22.152Z,71.78
2017-06-15T04:01:18.403Z,71.79
2017-06-15T04:02:14.663Z,71.81
2017-06-15T04:03:10.918Z,71.91
2017-06-15T04:04:07.170Z,72.00
2017-06-15T04:05:03.426Z,71.98
2017-06-15T04:05:59.675Z,72.08
2017-06-15T04:06:55.914Z,72.04
2017-06-15T04:07:52.179Z,72.05
2017-06-15T04:08:48.431Z,72.08
2017-06-15T04:09:44.688Z,72.10
2017-06-15T04:10:40.927Z,72.10
2017-06-15T04:11:37.190Z,72.09
2017-06-15T04:12:33.442Z,72.11
2017-06-15T04:13:29.701Z,72.13
2017-06-15T04:14:25.958Z,72.20
2017-06-15T04:15:22.198Z,72.17
2017-06-15T04:16:18.446Z,72.17
2017-06-15T04:17:14.706Z,72.18
2017-06-15T04:18:10.950Z,72.15
2017-06-15T04:19:07.215Z,72.18
2017-06-15T04:20:03.466Z,72.20
2017-06-15T04:20:59.711Z,72.21
2017-06-15T04:21:55.979Z,72.23
2017-06-15T04:22:52.226Z,72.23
2017-06-15T04:23:48.515Z,72.19
2017-06-15T04:24:44.763Z,72.22
2017-06-15T04:25:41.027Z,72.20
2017-06-15T04:26:37.348Z,72.19
2017-06-15T04:27:33.642Z,72.19
2017-06-15T04:28:29.944Z,72.18
2017-06-15T04:29:26.256Z,72.26
2017-06-15T04:30:22.550Z,72.25
2017-06-15T04:31:18.806Z,72.25
2017-06-15T04:32:15.046Z,72.29
2017-06-15T04:33:11.310Z,72.31
2017-06-15T04:34:07.602Z,72.37
2017-06-15T04:35:03.859Z,72.39
2017-06-15T04:36:00.102Z,72.42
2017-06-15T04:36:56.338Z,72.42
2017-06-15T04:37:52.603Z,72.42
2017-06-15T04:38:48.847Z,72.46
2017-06-15T04:39:45.147Z,72.47
2017-06-15T04:40:41.412Z,72.42
2017-06-15T04:41:37.690Z,72.39
2017-06-15T04:42:33.968Z,72.27
2017-06-15T04:43:30.219Z,72.23
2017-06-15T04:44:26.511Z,72.21
2017-06-15T04:45:22.758Z,72.23
2017-06-15T04:46:19.015Z,72.31
2017-06-15T04:47:15.262Z,72.41
2017-06-15T04:48:11.502Z,72.36
2017-06-15T04:49:07.747Z,72.40
2017-06-15T04:50:04.094Z,72.49
2017-06-15T04:51:00.346Z,72.56
2017-06-15T04:51:56.590Z,72.56
2017-06-15T04:52:52.850Z,72.60
2017-06-15T04:53:49.129Z,72.60
2017-06-15T04:54:45.386Z,72.60
2017-06-15T04:55:41.668Z,72.56
2017-06-15T04:56:37.910Z,72.64
2017-06-15T04:57:34.159Z,72.53
2017-06-15T04:58:30.406Z,72.53
2017-06-15T04:59:26.690Z,72.48
2017-06-15T05:00:22.978Z,72.46
2017-06-15T05:01:19.226Z,72.34
2017-06-15T05:02:15.479Z,72.30
2017-06-15T05:03:11.799Z,72.26
2017-06-15T05:04:08.066Z,72.25
2017-06-15T05:05:04.323Z,72.22
2017-06-15T05:06:00.583Z,72.26
2017-06-15T05:06:56.844Z,72.25
2017-06-15T05:07:53.103Z,72.20
2017-06-15T05:08:49.367Z,72.20
2017-06-15T05:09:45.629Z,72.11
2017-06-15T05:10:41.906Z,72.05
2017-06-15T05:11:38.215Z,71.98
2017-06-15T05:12:34.471Z,71.92
2017-06-15T05:13:30.719Z,71.90
2017-06-15T05:14:26.994Z,71.84
2017-06-15T05:15:23.255Z,71.77
2017-06-15T05:16:19.510Z,71.82
2017-06-15T05:17:15.770Z,71.79
2017-06-15T05:18:12.045Z,71.75
2017-06-15T05:19:08.323Z,71.78
2017-06-15T05:20:04.583Z,71.73
2017-06-15T05:21:00.842Z,71.77
2017-06-15T05:21:57.130Z,71.79
2017-06-15T05:22:53.378Z,71.73
2017-06-15T05:23:49.635Z,71.70
2017-06-15T05:24:45.886Z,71.67
2017-06-15T05:25:42.134Z,71.67
2017-06-15T05:26:38.391Z,71.64
2017-06-15T05:27:34.654Z,71.62
2017-06-15T05:28:30.914Z,71.58
2017-06-15T05:29:27.179Z,71.58
2017-06-15T05:30:23.482Z,71.45
2017-06-15T05:31:19.742Z,71.39
2017-06-15T05:32:16.006Z,71.33
2017-06-15T05:33:12.260Z,71.27
2017-06-15T05:34:08.530Z,71.16
2017-06-15T05:35:04.789Z,71.07
2017-06-15T05:36:01.059Z,71.04
2017-06-15T05:36:57.312Z,71.01
2017-06-15T05:37:53.588Z,70.94
2017-06-15T05:38:49.846Z,70.88
2017-06-15T05:39:46.119Z,70.81
2017-06-15T05:40:42.371Z,70.72
2017-06-15T05:41:38.646Z,70.61
2017-06-15T05:42:35.846Z,70.55
2017-06-15T05:43:32.110Z,70.47
2017-06-15T05:44:28.363Z,70.42
2017-06-15T05:45:24.623Z,70.42
2017-06-15T05:46:20.884Z,70.37
2017-06-15T05:47:17.143Z,70.36
2017-06-15T05:48:13.403Z,70.33
2017-06-15T05:49:09.662Z,70.25
2017-06-15T05:50:05.920Z,70.26
2017-06-15T05:51:02.196Z,70.20
2017-06-15T05:51:58.479Z,70.13
2017-06-15T05:52:54.763Z,70.07
2017-06-15T05:53:51.014Z,70.06
2017-06-15T05:54:47.274Z,69.92
2017-06-15T05:55:43.537Z,69.74
2017-06-15T05:56:39.831Z,69.62
2017-06-15T05:57:36.090Z,69.54
2017-06-15T05:58:32.363Z,69.57
2017-06-15T05:59:28.616Z,69.52
2017-06-15T06:00:24.898Z,69.40
2017-06-15T06:01:21.166Z,69.22
2017-06-15T06:02:17.431Z,69.05
2017-06-15T06:03:13.709Z,68.91
2017-06-15T06:04:09.983Z,68.74
2017-06-15T06:05:06.223Z,68.59
2017-06-15T06:06:02.471Z,68.51
2017-06-15T06:06:58.718Z,68.36
2017-06-15T06:07:54.992Z,68.25
2017-06-15T06:08:51.263Z,68.16
2017-06-15T06:09:47.515Z,68.05
2017-06-15T06:10:43.774Z,68.00
2017-06-15T06:11:40.034Z,67.84
2017-06-15T06:12:36.319Z,67.66
2017-06-15T06:13:32.574Z,67.40
2017-06-15T06:14:28.830Z,67.29
2017-06-15T06:15:25.083Z,67.19
2017-06-15T06:16:21.326Z,67.05
2017-06-15T06:17:17.587Z,66.99
2017-06-15T06:18:13.834Z,66.81
2017-06-15T06:19:10.111Z,66.74
2017-06-15T06:20:06.416Z,66.66
2017-06-15T06:21:02.683Z,66.65
2017-06-15T06:21:58.946Z,66.57
2017-06-15T06:22:55.187Z,66.50
2017-06-15T06:23:51.439Z,66.41
2017-06-15T06:24:47.716Z,66.30
2017-06-15T06:25:43.982Z,66.24
2017-06-15T06:26:40.281Z,66.22
2017-06-15T06:27:36.738Z,66.15
2017-06-15T06:28:32.995Z,66.09
2017-06-15T06:29:29.255Z,66.00
2017-06-15T06:30:25.547Z,65.88
2017-06-15T06:31:21.822Z,65.82
2017-06-15T06:32:18.087Z,65.76
2017-06-15T06:33:14.557Z,65.67
2017-06-15T06:34:10.947Z,65.54
2017-06-15T06:35:07.410Z,65.45
2017-06-15T06:36:03.678Z,65.26
2017-06-15T06:36:59.934Z,65.12
2017-06-15T06:37:56.184Z,64.89
2017-06-15T06:38:52.618Z,64.85
2017-06-15T06:39:48.878Z,64.69
2017-06-15T06:40:45.151Z,64.58
2017-06-15T06:41:41.419Z,64.53
2017-06-15T06:42:37.667Z,64.45
2017-06-15T06:43:33.918Z,64.30
2017-06-15T06:44:30.222Z,64.09
2017-06-15T06:45:26.476Z,63.90
2017-06-15T06:46:26.641Z,63.82
2017-06-15T06:47:23.114Z,63.68
2017-06-15T06:48:19.375Z,63.56
2017-06-15T06:49:15.643Z,63.48
2017-06-15T06:50:11.911Z,63.36
2017-06-15T06:51:08.336Z,63.29
2017-06-15T06:52:04.750Z,63.15
2017-06-15T06:53:01.223Z,63.09
2017-06-15T06:53:57.478Z,63.04
2017-06-15T06:54:53.863Z,62.97
2017-06-15T06:55:50.118Z,63.05
2017-06-15T06:56:46.390Z,63.06
2017-06-15T06:57:42.659Z,63.00
2017-06-15T06:58:38.887Z,62.92
2017-06-15T06:59:35.431Z,62.86
2017-06-15T07:00:31.827Z,62.77
2017-06-15T07:01:28.087Z,62.70
2017-06-15T07:02:24.350Z,62.63
2017-06-15T07:03:20.630Z,62.49
2017-06-15T07:04:16.886Z,62.40
2017-06-15T07:05:13.135Z,62.31
2017-06-15T07:06:09.382Z,62.25
2017-06-15T07:07:06.231Z,62.15
2017-06-15T07:08:02.500Z,62.05
2017-06-15T07:08:58.759Z,61.96
2017-06-15T07:09:55.031Z,61.92
2017-06-15T07:10:51.299Z,61.84
2017-06-15T07:11:47.570Z,61.80
2017-06-15T07:12:43.828Z,61.74
2017-06-15T07:13:40.092Z,61.67
2017-06-15T07:14:36.372Z,61.75
2017-06-15T07:15:32.647Z,61.76
2017-06-15T07:16:28.910Z,61.79
2017-06-15T07:17:25.204Z,61.76
2017-06-15T07:18:21.550Z,61.72
2017-06-15T07:19:18.027Z,61.68
2017-06-15T07:20:14.534Z,61.69
2017-06-15T07:21:10.791Z,61.63
2017-06-15T07:22:07.137Z,61.65
2017-06-15T07:23:03.427Z,61.57
2017-06-15T07:23:59.695Z,61.44
2017-06-15T07:24:55.938Z,61.31
2017-06-15T07:25:52.211Z,61.13
2017-06-15T07:26:48.467Z,60.92
2017-06-15T07:27:44.857Z,60.80
2017-06-15T07:28:41.142Z,60.75
2017-06-15T07:29:37.393Z,60.78
2017-06-15T07:30:33.647Z,60.79
2017-06-15T07:31:29.907Z,60.76
2017-06-15T07:32:26.217Z,60.76
2017-06-15T07:33:22.507Z,60.71
2017-06-15T07:34:18.789Z,60.60
2017-06-15T07:35:16.351Z,60.45
2017-06-15T07:36:12.608Z,60.31
2017-06-15T07:37:08.855Z,60.21
2017-06-15T07:38:05.125Z,60.12
2017-06-15T07:39:01.387Z,59.96
2017-06-15T07:39:57.670Z,59.85
2017-06-15T07:40:53.926Z,59.84
2017-06-15T07:41:50.520Z,59.82
2017-06-15T07:42:46.916Z,59.74
2017-06-15T07:43:43.216Z,59.69
2017-06-15T07:44:39.471Z,59.68
2017-06-15T07:45:35.751Z,59.68
2017-06-15T07:46:32.012Z,59.74
2017-06-15T07:47:28.542Z,59.86
2017-06-15T07:48:25.167Z,59.89
2017-06-15T07:49:21.410Z,59.90
2017-06-15T07:50:17.697Z,60.00
2017-06-15T07:51:13.934Z,60.00
2017-06-15T07:52:10.186Z,59.93
2017-06-15T07:53:06.420Z,59.85
2017-06-15T07:54:02.679Z,59.83
2017-06-15T07:54:58.948Z,59.77
2017-06-15T07:55:55.223Z,59.70
2017-06-15T07:56:51.479Z,59.57
2017-06-15T07:57:47.743Z,59.52
2017-06-15T07:58:43.987Z,59.51
2017-06-15T07:59:40.252Z,59.33
2017-06-15T08:00:36.570Z,59.19
2017-06-15T08:01:32.835Z,59.13
2017-06-15T08:02:29.302Z,58.92
2017-06-15T08:03:25.666Z,58.90
2017-06-15T08:04:21.972Z,58.79
2017-06-15T08:05:18.239Z,58.75
2017-06-15T08:06:14.599Z,58.71
2017-06-15T08:07:11.167Z,58.61
2017-06-15T08:08:07.848Z,58.60
2017-06-15T08:09:04.250Z,58.42
2017-06-15T08:10:00.630Z,58.30
2017-06-15T08:10:57.082Z,58.17
2017-06-15T08:11:53.599Z,58.11
2017-06-15T08:12:49.967Z,58.10
2017-06-15T08:13:46.218Z,58.07
2017-06-15T08:14:42.470Z,57.96
2017-06-15T08:15:38.723Z,57.92
2017-06-15T08:16:34.979Z,57.84
2017-06-15T08:17:31.254Z,57.80
2017-06-15T08:18:27.518Z,57.67
2017-06-15T08:19:23.758Z,57.51
2017-06-15T08:20:20.007Z,57.43
2017-06-15T08:21:16.263Z,57.32
2017-06-15T08:22:12.558Z,57.22
2017-06-15T08:23:08.807Z,57.22
2017-06-15T08:24:05.095Z,57.30
2017-06-15T08:25:01.370Z,57.16
2017-06-15T08:25:57.618Z,56.97
2017-06-15T08:26:53.883Z,56.92
2017-06-15T08:27:50.147Z,56.71
2017-06-15T08:28:46.397Z,56.53
2017-06-15T08:29:42.639Z,56.33
2017-06-15T08:30:38.890Z,56.29
2017-06-15T08:31:35.143Z,56.12
2017-06-15T08:32:31.390Z,55.98
2017-06-15T08:33:27.670Z,55.94
2017-06-15T08:34:23.936Z,55.80
2017-06-15T08:35:20.182Z,55.65
2017-06-15T08:36:16.430Z,55.42
2017-06-15T08:37:12.698Z,55.17
2017-06-15T08:38:09.007Z,54.94
2017-06-15T08:39:05.291Z,54.69
2017-06-15T08:40:01.555Z,54.53
2017-06-15T08:40:57.821Z,54.47
2017-06-15T08:41:54.090Z,54.43
2017-06-15T08:42:50.351Z,54.40
2017-06-15T08:43:46.734Z,54.52
2017-06-15T08:44:43.057Z,54.64
2017-06-15T08:45:42.486Z,54.62
2017-06-15T08:46:38.759Z,54.47
2017-06-15T08:47:35.019Z,54.45
2017-06-15T08:48:31.283Z,54.29
2017-06-15T08:49:27.558Z,54.13
2017-06-15T08:50:23.812Z,54.02
2017-06-15T08:51:20.078Z,54.00
2017-06-15T08:52:16.323Z,53.91
2017-06-15T08:53:12.582Z,53.85
2017-06-15T08:54:08.854Z,53.84
2017-06-15T08:55:05.134Z,53.77
2017-06-15T08:56:01.554Z,53.62
2017-06-15T08:56:57.795Z,53.66
2017-06-15T08:57:54.055Z,53.46
2017-06-15T08:58:50.355Z,53.39
2017-06-15T08:59:46.667Z,53.35
2017-06-15T09:00:42.950Z,53.37
2017-06-15T09:01:39.286Z,53.37
2017-06-15T09:02:35.588Z,53.37
2017-06-15T09:03:31.834Z,53.41
2017-06-15T09:04:28.088Z,53.63
2017-06-15T09:05:24.354Z,53.55
2017-06-15T09:06:20.619Z,53.23
2017-06-15T09:07:16.879Z,53.18
2017-06-15T09:08:13.130Z,53.22
2017-06-15T09:09:09.367Z,53.14
2017-06-15T09:10:05.630Z,53.27
2017-06-15T09:11:01.903Z,53.12
2017-06-15T09:11:58.168Z,52.72
2017-06-15T09:12:54.414Z,52.88
2017-06-15T09:13:50.654Z,52.88
2017-06-15T09:14:46.902Z,52.98
2017-06-15T09:15:43.150Z,52.96
2017-06-15T09:16:39.411Z,52.96
2017-06-15T09:17:35.670Z,52.91
2017-06-15T09:18:31.919Z,52.75
2017-06-15T09:19:28.170Z,52.59
2017-06-15T09:20:24.424Z,52.25
2017-06-15T09:21:20.683Z,52.16
2017-06-15T09:22:16.922Z,51.67
2017-06-15T09:23:13.169Z,51.26
2017-06-15T09:24:09.430Z,50.73
2017-06-15T09:25:05.683Z,50.66
2017-06-15T09:26:01.942Z,50.65
2017-06-15T09:26:58.219Z,50.54
2017-06-15T09:27:54.458Z,50.38
2017-06-15T09:28:50.703Z,50.23
2017-06-15T09:29:46.951Z,49.48
2017-06-15T09:30:43.187Z,49.54
2017-06-15T09:31:39.434Z,49.46
2017-06-15T09:32:35.733Z,49.05
2017-06-15T09:33:31.984Z,48.73
2017-06-15T09:34:28.242Z,48.53
2017-06-15T09:35:24.506Z,48.21
2017-06-15T09:36:20.754Z,48.03
2017-06-15T09:37:16.999Z,47.49
2017-06-15T09:38:13.266Z,46.86
2017-06-15T09:39:09.543Z,46.50
2017-06-15T09:40:05.831Z,46.19
2017-06-15T09:41:02.095Z,45.98
2017-06-15T09:41:58.371Z,45.75
2017-06-15T09:42:54.630Z,45.64
2017-06-15T09:43:50.892Z,45.42
2017-06-15T09:44:47.150Z,45.31
2017-06-15T09:45:43.391Z,45.21
2017-06-15T09:46:39.636Z,44.99
2017-06-15T09:47:35.887Z,44.77
2017-06-15T09:48:32.147Z,44.51
2017-06-15T09:49:28.414Z,44.38
2017-06-15T09:50:24.665Z,44.20
2017-06-15T09:51:20.902Z,44.20
2017-06-15T09:52:17.154Z,43.61
2017-06-15T09:53:13.406Z,43.31
2017-06-15T09:54:09.654Z,43.04
2017-06-15T09:55:05.911Z,42.80
2017-06-15T09:56:02.160Z,42.20
2017-06-15T09:56:58.432Z,41.94
2017-06-15T09:57:54.694Z,41.68
2017-06-15T09:58:51.023Z,41.44
2017-06-15T09:59:47.423Z,40.53
2017-06-15T10:00:43.679Z,40.46
2017-06-15T10:01:39.931Z,40.07
2017-06-15T10:02:36.185Z,39.07
2017-06-15T10:03:32.437Z,38.22
2017-06-15T10:04:28.695Z,38.06
2017-06-15T10:05:24.955Z,37.47
2017-06-15T10:06:21.434Z,37.64
2017-06-15T10:07:17.687Z,37.65
2017-06-15T10:08:13.939Z,37.48
2017-06-15T10:09:10.215Z,37.65
2017-06-15T10:10:06.639Z,37.39
2017-06-15T10:11:02.884Z,37.18
2017-06-15T10:11:59.122Z,37.58
2017-06-15T10:12:55.374Z,37.69
2017-06-15T10:13:51.622Z,37.62
2017-06-15T10:14:47.863Z,37.29
2017-06-15T10:15:44.174Z,37.47
2017-06-15T10:16:40.490Z,37.63
2017-06-15T10:17:36.839Z,37.78
2017-06-15T10:18:33.079Z,37.70
2017-06-15T10:19:29.335Z,37.68
2017-06-15T10:20:25.602Z,37.71
2017-06-15T10:21:21.855Z,38.09
2017-06-15T10:22:18.298Z,38.00
2017-06-15T10:23:14.631Z,37.80
2017-06-15T10:24:10.891Z,37.68
2017-06-15T10:25:07.155Z,37.41
2017-06-15T10:26:03.521Z,37.21
2017-06-15T10:26:59.779Z,36.88
2017-06-15T10:27:56.034Z,36.39
2017-06-15T10:28:52.283Z,36.29
2017-06-15T10:29:48.638Z,36.38
2017-06-15T10:30:44.886Z,36.22
2017-06-15T10:31:41.147Z,36.10
2017-06-15T10:32:37.400Z,36.13
2017-06-15T10:33:33.646Z,36.34
2017-06-15T10:34:29.891Z,36.39
2017-06-15T10:35:26.147Z,36.58
2017-06-15T10:36:22.393Z,36.56
2017-06-15T10:37:18.654Z,36.38
2017-06-15T10:38:14.907Z,36.45
2017-06-15T10:39:11.162Z,36.75
2017-06-15T10:40:07.414Z,36.63
2017-06-15T10:41:03.675Z,36.66
2017-06-15T10:41:59.931Z,36.04
2017-06-15T10:42:56.190Z,35.61
2017-06-15T10:43:52.474Z,35.78
2017-06-15T10:44:48.712Z,35.90
2017-06-15T10:45:44.959Z,35.80
2017-06-15T10:46:41.203Z,35.52
2017-06-15T10:47:37.466Z,35.64
2017-06-15T10:48:33.703Z,35.63
2017-06-15T10:49:29.959Z,35.76
2017-06-15T10:50:26.217Z,35.34
2017-06-15T10:51:22.502Z,35.29
2017-06-15T10:52:18.760Z,35.44
2017-06-15T10:53:15.055Z,35.44
2017-06-15T10:54:11.313Z,35.58
2017-06-15T10:55:07.555Z,35.59
2017-06-15T10:56:03.794Z,35.74
2017-06-15T10:57:00.054Z,35.97
2017-06-15T10:57:56.296Z,36.04
2017-06-15T10:58:52.574Z,35.80
2017-06-15T10:59:48.814Z,35.62
2017-06-15T11:00:45.054Z,35.64
2017-06-15T11:01:41.306Z,35.86
2017-06-15T11:02:37.550Z,35.43
2017-06-15T11:03:33.797Z,34.79
2017-06-15T11:04:30.055Z,34.36
2017-06-15T11:05:26.299Z,34.06
2017-06-15T11:06:22.559Z,34.13
2017-06-15T11:07:18.830Z,34.02
2017-06-15T11:08:15.130Z,33.87
2017-06-15T11:09:11.383Z,33.95
2017-06-15T11:10:07.820Z,34.02
2017-06-15T11:11:04.066Z,34.24
2017-06-15T11:12:00.306Z,34.35
2017-06-15T11:12:56.550Z,34.47
2017-06-15T11:13:52.794Z,34.39
2017-06-15T11:14:49.052Z,34.23
2017-06-15T11:15:45.318Z,33.93
2017-06-15T11:16:41.562Z,33.72
2017-06-15T11:17:37.807Z,33.73
2017-06-15T11:18:34.058Z,33.85
2017-06-15T11:19:30.326Z,33.91
2017-06-15T11:20:26.641Z,33.76
2017-06-15T11:21:22.891Z,33.85
2017-06-15T11:22:19.143Z,33.95
2017-06-15T11:23:15.395Z,33.98
2017-06-15T11:24:11.639Z,33.73
2017-06-15T11:25:07.899Z,33.64
2017-06-15T11:26:04.175Z,33.63
2017-06-15T11:27:00.406Z,33.62
2017-06-15T11:27:56.647Z,33.78
2017-06-15T11:28:52.919Z,33.59
2017-06-15T11:29:49.168Z,33.62
2017-06-15T11:30:45.444Z,33.74
2017-06-15T11:31:41.695Z,33.85
2017-06-15T11:32:37.950Z,33.52
2017-06-15T11:33:34.215Z,33.64
2017-06-15T11:34:30.465Z,33.60
2017-06-15T11:35:26.719Z,33.36
2017-06-15T11:36:22.979Z,33.17
2017-06-15T11:37:19.236Z,32.97
2017-06-15T11:38:15.507Z,33.10
2017-06-15T11:39:11.771Z,33.03
2017-06-15T11:40:08.038Z,33.02
2017-06-15T11:41:04.331Z,32.98
2017-06-15T11:42:00.583Z,33.07
2017-06-15T11:42:56.850Z,33.35
2017-06-15T11:43:53.091Z,33.48
2017-06-15T11:44:49.370Z,33.35
2017-06-15T11:45:45.640Z,33.20
2017-06-15T11:46:41.905Z,33.31
2017-06-15T11:47:38.154Z,33.28
2017-06-15T11:48:34.415Z,33.42
2017-06-15T11:49:30.670Z,33.33
2017-06-15T11:50:26.922Z,32.72
2017-06-15T11:51:23.195Z,32.71
2017-06-15T11:52:19.440Z,32.70
2017-06-15T11:53:15.700Z,32.47
2017-06-15T11:54:11.952Z,32.57
2017-06-15T11:55:08.211Z,32.60
2017-06-15T11:56:04.458Z,32.68
2017-06-15T11:57:00.727Z,32.41
2017-06-15T11:57:56.981Z,32.02
2017-06-15T11:58:53.233Z,31.85
2017-06-15T11:59:49.494Z,32.18
2017-06-15T12:00:45.781Z,32.17
2017-06-15T12:01:42.186Z,32.46
2017-06-15T12:02:38.815Z,32.53
2017-06-15T12:03:35.062Z,32.52
2017-06-15T12:04:31.311Z,32.47